Time;durP1;ratioP1;P1;durP2;ratioP2;P2;SDS_P1;SDS_P2;PMS_P1;PMS_P2;Temp;Humidity;BMP_temperature;BMP_pressure;BME280_temperature;BME280_humidity;BME280_pressure;Samples;Min_cycle;Max_cycle;Signal;HPM_P1;HPM_P2
2023/09/01 00:02:06;;;;;;;6.40;3.42;;;11.90;99.90;;;;;;4990047;28;89337;-36
2023/09/01 00:04:33;;;;;;;4.68;3.40;;;11.90;99.90;;;;;;4998403;28;89840;-34
2023/09/01 00:07:02;;;;;;;3.75;3.45;;;11.80;99.90;;;;;;4999137;28;89747;-36
2023/09/01 00:09:27;;;;;;;6.97;3.97;;;11.80;99.90;;;;;;4998053;28;89986;-33
2023/09/01 00:11:53;;;;;;;4.75;3.40;;;11.80;99.90;;;;;;4998723;28;90234;-34
2023/09/01 00:14:19;;;;;;;4.25;2.80;;;11.80;99.90;;;;;;4999204;28;90417;-34
2023/09/01 00:16:44;;;;;;;5.43;3.80;;;11.80;99.90;;;;;;4998410;28;89700;-35
2023/09/01 00:19:10;;;;;;;5.90;3.97;;;11.80;99.90;;;;;;4999200;28;89674;-34
2023/09/01 00:21:35;;;;;;;4.68;3.72;;;11.80;99.90;;;;;;5005314;28;89918;-34
2023/09/01 00:24:03;;;;;;;7.43;4.30;;;11.90;99.90;;;;;;5004027;28;89546;-34
2023/09/01 00:26:29;;;;;;;6.00;5.10;;;11.80;99.90;;;;;;5005089;28;89615;-35
2023/09/01 00:28:54;;;;;;;8.50;4.43;;;11.70;99.90;;;;;;5004474;28;91364;-32
2023/09/01 00:31:20;;;;;;;5.43;4.70;;;11.80;99.90;;;;;;5004466;28;89302;-34
2023/09/01 00:33:46;;;;;;;8.60;5.10;;;11.80;99.90;;;;;;5005241;28;89705;-35
2023/09/01 00:36:12;;;;;;;5.18;4.68;;;11.80;99.90;;;;;;5005296;28;89152;-33
2023/09/01 00:38:38;;;;;;;5.47;4.78;;;11.80;99.90;;;;;;5005197;28;90248;-37
2023/09/01 00:41:03;;;;;;;5.22;4.72;;;11.80;99.90;;;;;;5005562;28;88528;-35
2023/09/01 00:43:29;;;;;;;5.90;5.03;;;11.80;99.90;;;;;;5003461;28;90066;-37
2023/09/01 00:45:56;;;;;;;5.47;4.65;;;11.80;99.90;;;;;;5004468;28;90567;-33
2023/09/01 00:48:22;;;;;;;6.25;5.03;;;11.80;99.90;;;;;;5003981;28;90115;-36
2023/09/01 00:50:49;;;;;;;12.48;5.03;;;11.80;99.90;;;;;;5004731;28;88949;-33
2023/09/01 00:53:16;;;;;;;5.93;5.30;;;11.90;99.90;;;;;;5004649;28;90321;-35
2023/09/01 00:55:42;;;;;;;4.10;3.00;;;11.80;99.90;;;;;;5004777;28;89633;-34
2023/09/01 00:58:07;;;;;;;9.27;5.18;;;11.80;99.90;;;;;;5003670;28;89583;-38
2023/09/01 01:00:33;;;;;;;7.10;4.85;;;11.80;99.90;;;;;;5005236;28;89848;-34
2023/09/01 01:03:05;;;;;;;5.57;4.78;;;11.80;99.90;;;;;;5005106;28;88934;-32
2023/09/01 01:05:56;;;;;;;6.22;4.82;;;11.80;99.90;;;;;;5003801;28;89408;-34
2023/09/01 01:08:27;;;;;;;4.93;4.32;;;11.90;99.90;;;;;;5004659;28;89127;-37
2023/09/01 01:10:57;;;;;;;4.85;4.28;;;11.90;99.90;;;;;;5000364;28;89329;-34
2023/09/01 01:13:28;;;;;;;7.07;4.43;;;11.90;99.90;;;;;;5003925;28;90328;-38
2023/09/01 01:15:55;;;;;;;7.93;5.10;;;11.90;99.90;;;;;;5003884;28;89499;-35
2023/09/01 01:18:23;;;;;;;8.85;4.78;;;11.90;99.90;;;;;;4999684;28;89750;-35
2023/09/01 01:21:00;;;;;;;5.32;4.10;;;11.90;99.90;;;;;;4997026;28;89027;-36
2023/09/01 01:23:26;;;;;;;4.90;4.18;;;11.90;99.90;;;;;;4999490;28;91496;-36
2023/09/01 01:25:52;;;;;;;4.93;4.32;;;12.00;99.90;;;;;;5003943;28;89679;-32
2023/09/01 01:28:20;;;;;;;8.15;5.00;;;12.00;99.90;;;;;;5004115;28;89407;-32
2023/09/01 01:30:47;;;;;;;5.35;4.40;;;12.00;99.90;;;;;;5001636;28;89784;-35
2023/09/01 01:33:50;;;;;;;8.43;4.40;;;12.00;99.90;;;;;;4999623;28;90131;-36
2023/09/01 01:36:40;;;;;;;8.18;4.18;;;12.00;99.90;;;;;;4992897;28;90551;-33
2023/09/01 01:39:09;;;;;;;6.60;4.30;;;12.00;99.90;;;;;;5001096;28;90022;-38
2023/09/01 01:41:45;;;;;;;5.22;3.75;;;12.00;99.90;;;;;;4998912;28;88267;-37
2023/09/01 01:44:14;;;;;;;5.50;3.85;;;12.00;99.90;;;;;;4998096;28;91151;-35
2023/09/01 01:46:40;;;;;;;5.15;4.45;;;12.00;99.90;;;;;;5000341;28;90270;-33
2023/09/01 01:49:10;;;;;;;6.03;4.65;;;12.00;99.90;;;;;;4999025;28;89865;-34
2023/09/01 01:51:35;;;;;;;10.02;4.65;;;12.00;99.90;;;;;;4990935;28;87877;-35
2023/09/01 01:54:02;;;;;;;6.05;4.70;;;12.00;99.90;;;;;;5001065;28;90791;-37
2023/09/01 01:56:27;;;;;;;4.00;3.05;;;12.00;99.90;;;;;;4999379;28;89564;-33
2023/09/01 01:58:53;;;;;;;10.40;4.55;;;12.00;99.90;;;;;;5000380;28;90703;-37
2023/09/01 02:01:19;;;;;;;5.60;4.57;;;11.90;99.90;;;;;;4999142;28;89769;-37
2023/09/01 02:03:44;;;;;;;7.85;4.20;;;12.00;99.90;;;;;;4994117;28;90398;-37
2023/09/01 02:06:10;;;;;;;5.18;4.10;;;11.90;99.90;;;;;;4994287;28;89481;-37
2023/09/01 02:08:36;;;;;;;8.82;5.97;;;11.90;99.90;;;;;;5000001;28;90251;-32
2023/09/01 02:11:01;;;;;;;9.25;5.00;;;11.90;99.90;;;;;;5000709;28;89017;-36
2023/09/01 02:13:27;;;;;;;9.18;5.63;;;11.80;99.90;;;;;;4999416;28;89436;-36
2023/09/01 02:15:53;;;;;;;5.68;5.10;;;11.90;99.90;;;;;;5000714;28;89897;-35
2023/09/01 02:18:20;;;;;;;8.07;6.97;;;11.80;99.90;;;;;;5000502;28;88958;-33
2023/09/01 02:20:46;;;;;;;6.57;5.97;;;11.80;99.90;;;;;;5000352;28;89089;-33
2023/09/01 02:23:19;;;;;;;7.03;6.13;;;11.90;99.90;;;;;;5000627;28;91646;-35
2023/09/01 02:25:45;;;;;;;7.20;6.50;;;11.90;99.90;;;;;;4998945;28;90252;-32
2023/09/01 02:28:12;;;;;;;8.68;6.03;;;11.90;99.90;;;;;;5000270;28;90426;-37
2023/09/01 02:30:38;;;;;;;5.80;4.30;;;12.00;99.90;;;;;;4999810;28;87703;-35
2023/09/01 02:33:05;;;;;;;7.90;6.57;;;11.90;99.90;;;;;;5000139;28;90203;-36
2023/09/01 02:35:30;;;;;;;7.93;7.13;;;12.00;99.90;;;;;;4999297;28;90098;-35
2023/09/01 02:37:56;;;;;;;7.93;6.47;;;12.00;99.90;;;;;;4999783;28;90671;-35
2023/09/01 02:40:24;;;;;;;6.30;5.20;;;12.00;99.90;;;;;;4999180;28;88606;-36
2023/09/01 02:42:53;;;;;;;6.90;4.40;;;11.90;99.90;;;;;;4999762;28;89892;-33
2023/09/01 02:45:19;;;;;;;5.78;4.70;;;11.70;99.90;;;;;;4999122;28;89753;-34
2023/09/01 02:47:45;;;;;;;6.63;3.08;;;11.60;99.90;;;;;;4999535;28;89222;-36
2023/09/01 02:50:11;;;;;;;6.28;5.53;;;11.70;99.90;;;;;;4996474;28;89981;-34
2023/09/01 02:52:36;;;;;;;6.57;5.97;;;11.70;99.90;;;;;;4989829;28;90746;-35
2023/09/01 02:55:06;;;;;;;7.18;6.10;;;11.70;99.90;;;;;;4999203;28;89256;-31
2023/09/01 02:57:32;;;;;;;7.22;6.43;;;11.70;99.90;;;;;;4999004;28;89464;-34
2023/09/01 02:59:57;;;;;;;11.40;7.22;;;11.70;99.90;;;;;;4999485;28;88599;-37
2023/09/01 03:02:24;;;;;;;12.88;8.30;;;11.80;99.90;;;;;;4994346;28;90128;-37
2023/09/01 03:04:50;;;;;;;10.75;7.80;;;11.80;99.90;;;;;;4999295;28;89542;-33
2023/09/01 03:07:16;;;;;;;11.68;7.65;;;11.80;99.90;;;;;;4999765;28;90226;-35
2023/09/01 03:09:42;;;;;;;10.10;8.55;;;11.90;99.90;;;;;;4998938;28;90117;-34
2023/09/01 03:12:08;;;;;;;9.25;7.97;;;11.90;99.90;;;;;;4999268;28;89263;-37
2023/09/01 03:14:34;;;;;;;9.57;8.00;;;11.90;99.90;;;;;;4998627;28;90306;-34
2023/09/01 03:16:59;;;;;;;10.60;8.63;;;11.90;99.90;;;;;;4999190;28;89572;-34
2023/09/01 03:19:25;;;;;;;9.95;7.20;;;11.90;99.90;;;;;;4999906;28;89219;-34
2023/09/01 03:21:51;;;;;;;10.70;8.82;;;11.90;99.90;;;;;;4998949;28;90051;-32
2023/09/01 03:24:16;;;;;;;11.57;8.80;;;11.90;99.90;;;;;;4998860;28;90123;-35
2023/09/01 03:26:42;;;;;;;12.45;8.70;;;11.90;99.90;;;;;;4999086;28;89568;-36
2023/09/01 03:29:07;;;;;;;8.48;7.60;;;11.90;99.90;;;;;;4998780;28;88498;-34
2023/09/01 03:31:33;;;;;;;8.90;7.07;;;11.80;99.90;;;;;;4998833;28;89637;-34
2023/09/01 03:33:59;;;;;;;9.90;5.90;;;11.70;99.90;;;;;;4993924;28;89688;-33
2023/09/01 03:36:25;;;;;;;7.68;6.85;;;11.70;99.90;;;;;;4999040;28;88673;-33
2023/09/01 03:38:54;;;;;;;7.50;5.72;;;11.60;99.90;;;;;;4998504;28;90745;-34
2023/09/01 03:41:20;;;;;;;6.78;6.18;;;11.50;99.90;;;;;;4998834;28;90369;-36
2023/09/01 03:43:45;;;;;;;9.32;5.80;;;11.50;99.90;;;;;;4999487;28;90849;-33
2023/09/01 03:46:11;;;;;;;6.35;5.85;;;11.50;99.90;;;;;;4998455;28;89352;-33
2023/09/01 03:48:37;;;;;;;8.63;6.60;;;11.50;99.90;;;;;;4999068;28;90092;-36
2023/09/01 03:51:11;;;;;;;7.65;5.18;;;11.50;99.90;;;;;;4999164;28;89701;-33
2023/09/01 03:53:37;;;;;;;9.48;8.32;;;11.50;99.90;;;;;;4998360;28;89610;-37
2023/09/01 03:56:23;;;;;;;8.27;7.50;;;11.50;99.90;;;;;;4999076;28;89865;-34
2023/09/01 03:58:49;;;;;;;9.32;7.88;;;11.50;99.90;;;;;;4986216;28;88998;-35
2023/09/01 04:01:15;;;;;;;9.35;7.40;;;11.50;99.90;;;;;;4998088;28;90225;-33
2023/09/01 04:03:45;;;;;;;7.95;7.13;;;11.50;99.90;;;;;;4998502;28;90729;-35
2023/09/01 04:06:11;;;;;;;9.50;7.03;;;11.50;99.90;;;;;;4998305;28;89783;-34
2023/09/01 04:08:37;;;;;;;11.65;7.70;;;11.50;99.90;;;;;;4998686;28;88629;-38
2023/09/01 04:11:03;;;;;;;6.60;3.95;;;11.50;99.90;;;;;;4994240;28;89887;-36
2023/09/01 04:13:33;;;;;;;10.70;7.07;;;11.50;99.90;;;;;;4998582;28;89278;-36
2023/09/01 04:15:59;;;;;;;7.60;6.88;;;11.50;99.90;;;;;;4994097;28;89625;-33
2023/09/01 04:18:25;;;;;;;9.02;7.03;;;11.40;99.90;;;;;;4993910;28;88754;-32
2023/09/01 04:20:52;;;;;;;8.00;7.20;;;11.50;99.90;;;;;;4999005;28;90191;-35
2023/09/01 04:23:18;;;;;;;8.70;7.30;;;11.50;99.90;;;;;;4998023;28;90897;-34
2023/09/01 04:25:48;;;;;;;9.43;8.40;;;11.50;99.90;;;;;;4997835;28;89658;-32
2023/09/01 04:28:14;;;;;;;13.63;9.00;;;11.50;99.90;;;;;;4996407;28;89924;-33
2023/09/01 04:30:39;;;;;;;10.70;9.40;;;11.50;99.90;;;;;;4998194;28;90140;-36
2023/09/01 04:33:06;;;;;;;15.10;9.25;;;11.50;99.90;;;;;;4997760;28;90041;-35
2023/09/01 04:35:32;;;;;;;10.35;8.75;;;11.50;99.90;;;;;;4997913;28;89655;-33
2023/09/01 04:37:58;;;;;;;11.52;7.88;;;11.50;99.90;;;;;;4998901;28;88378;-36
2023/09/01 04:40:25;;;;;;;12.13;8.88;;;11.50;99.90;;;;;;4997525;28;90326;-34
2023/09/01 04:42:50;;;;;;;9.52;8.63;;;11.50;99.90;;;;;;4997511;28;90029;-35
2023/09/01 04:45:16;;;;;;;8.90;8.00;;;11.50;99.90;;;;;;4997980;28;90011;-33
2023/09/01 04:47:42;;;;;;;10.55;9.45;;;11.50;99.90;;;;;;4998230;28;88570;-33
2023/09/01 04:50:08;;;;;;;12.02;8.13;;;11.40;99.90;;;;;;4997606;28;90496;-35
2023/09/01 04:52:33;;;;;;;10.15;8.50;;;11.50;99.90;;;;;;4997061;28;90639;-34
2023/09/01 04:54:59;;;;;;;11.55;8.82;;;11.50;99.90;;;;;;4997662;28;90284;-37
2023/09/01 04:57:26;;;;;;;10.23;8.00;;;11.50;99.90;;;;;;4997625;28;89261;-34
2023/09/01 04:59:51;;;;;;;14.27;9.95;;;11.50;99.90;;;;;;4991425;28;90287;-33
2023/09/01 05:02:17;;;;;;;15.65;8.38;;;11.50;99.90;;;;;;4984428;28;90177;-35
2023/09/01 05:04:43;;;;;;;10.23;9.23;;;11.50;99.90;;;;;;4997431;28;89503;-33
2023/09/01 05:07:08;;;;;;;11.45;7.82;;;11.50;99.90;;;;;;4999009;28;87745;-37
2023/09/01 05:09:34;;;;;;;7.65;6.35;;;11.50;99.90;;;;;;4994240;28;90003;-35
2023/09/01 05:11:59;;;;;;;7.90;7.18;;;11.50;99.90;;;;;;4995259;28;88508;-37
2023/09/01 05:14:26;;;;;;;14.75;9.13;;;11.50;99.90;;;;;;5001214;28;89441;-36
2023/09/01 05:16:51;;;;;;;7.38;6.13;;;11.50;99.90;;;;;;4999818;28;89290;-37
2023/09/01 05:19:17;;;;;;;9.20;7.20;;;11.60;99.90;;;;;;5001284;28;90357;-35
2023/09/01 05:21:43;;;;;;;11.68;7.45;;;11.60;99.90;;;;;;5000791;28;91557;-33
2023/09/01 05:24:08;;;;;;;7.38;6.30;;;11.60;99.90;;;;;;5001120;28;89658;-34
2023/09/01 05:26:34;;;;;;;9.85;6.07;;;11.70;99.90;;;;;;5000734;28;87915;-35
2023/09/01 05:29:00;;;;;;;10.95;6.75;;;11.70;99.90;;;;;;4982332;28;91085;-33
2023/09/01 05:31:26;;;;;;;10.05;7.38;;;11.70;99.90;;;;;;5000698;28;89617;-36
2023/09/01 05:33:52;;;;;;;6.07;5.47;;;11.80;99.90;;;;;;5001110;28;88788;-36
2023/09/01 05:36:17;;;;;;;7.30;6.18;;;11.80;99.90;;;;;;5000416;28;88250;-35
2023/09/01 05:38:43;;;;;;;3.22;2.92;;;11.90;99.90;;;;;;4999741;28;91423;-34
2023/09/01 05:41:10;;;;;;;11.27;7.03;;;11.90;99.90;;;;;;4994311;28;90325;-35
2023/09/01 05:43:36;;;;;;;9.80;7.22;;;11.90;99.90;;;;;;5000867;28;90319;-33
2023/09/01 05:46:02;;;;;;;8.30;6.97;;;11.90;99.90;;;;;;5000585;28;89074;-34
2023/09/01 05:48:28;;;;;;;10.85;7.75;;;11.70;99.90;;;;;;5000871;28;90886;-37
2023/09/01 05:50:54;;;;;;;12.05;8.55;;;11.70;99.90;;;;;;5000069;28;89760;-35
2023/09/01 05:53:21;;;;;;;9.88;8.77;;;11.70;99.90;;;;;;4999836;28;89569;-36
2023/09/01 05:55:47;;;;;;;9.80;8.80;;;11.70;99.90;;;;;;5000263;28;89789;-37
2023/09/01 05:58:13;;;;;;;9.30;8.40;;;11.70;99.90;;;;;;5001131;28;90154;-35
2023/09/01 06:00:39;;;;;;;8.82;7.32;;;11.80;99.90;;;;;;5000194;28;89777;-35
2023/09/01 06:03:04;;;;;;;8.52;7.60;;;11.70;99.90;;;;;;4987683;28;89412;-34
2023/09/01 06:05:31;;;;;;;9.73;8.02;;;11.80;99.90;;;;;;4998967;28;89796;-34
2023/09/01 06:07:56;;;;;;;8.43;7.65;;;11.80;99.90;;;;;;4996220;28;90076;-37
2023/09/01 06:10:22;;;;;;;8.48;7.57;;;11.90;99.90;;;;;;4998025;28;88589;-32
2023/09/01 06:12:48;;;;;;;13.63;7.75;;;12.00;99.90;;;;;;4993185;28;89851;-33
2023/09/01 06:15:13;;;;;;;10.07;7.78;;;12.10;99.90;;;;;;4997064;28;89825;-34
2023/09/01 06:17:39;;;;;;;8.18;7.35;;;12.10;99.90;;;;;;4997548;28;89759;-36
2023/09/01 06:20:06;;;;;;;13.05;7.40;;;12.20;99.90;;;;;;4997251;28;90069;-36
2023/09/01 06:22:32;;;;;;;8.73;7.63;;;12.30;99.90;;;;;;4997834;28;89461;-34
2023/09/01 06:24:58;;;;;;;9.52;8.60;;;12.30;99.90;;;;;;4997084;28;89951;-33
2023/09/01 06:27:24;;;;;;;9.35;8.38;;;12.40;99.90;;;;;;4997857;28;90142;-32
2023/09/01 06:29:49;;;;;;;8.07;5.90;;;12.40;99.90;;;;;;4995572;28;90954;-34
2023/09/01 06:32:15;;;;;;;10.63;8.00;;;12.50;99.90;;;;;;4997461;28;90184;-38
2023/09/01 06:34:42;;;;;;;10.88;9.32;;;12.50;99.90;;;;;;4992397;28;90111;-34
2023/09/01 06:37:07;;;;;;;12.73;10.60;;;12.60;99.90;;;;;;4996924;28;90652;-38
2023/09/01 06:39:33;;;;;;;21.25;13.25;;;12.70;99.90;;;;;;4991447;28;90253;-34
2023/09/01 06:41:59;;;;;;;19.00;14.90;;;12.80;99.90;;;;;;4996227;28;90267;-34
2023/09/01 06:44:24;;;;;;;12.48;8.32;;;12.90;99.90;;;;;;4996141;28;88938;-37
2023/09/01 06:46:50;;;;;;;16.35;12.82;;;12.90;99.90;;;;;;4997799;28;89904;-34
2023/09/01 06:49:16;;;;;;;14.00;12.48;;;13.00;99.90;;;;;;4996766;28;89184;-33
2023/09/01 06:51:42;;;;;;;17.00;14.35;;;13.20;99.90;;;;;;4995665;28;90178;-34
2023/09/01 06:54:07;;;;;;;18.27;16.13;;;13.30;99.90;;;;;;4995018;28;90170;-37
2023/09/01 06:56:33;;;;;;;17.30;13.45;;;13.40;99.90;;;;;;4994571;28;90362;-36
2023/09/01 06:58:59;;;;;;;17.40;15.57;;;13.40;99.90;;;;;;4995770;28;89845;-33
2023/09/01 07:01:27;;;;;;;17.25;15.43;;;13.60;99.90;;;;;;4986223;28;89739;-34
2023/09/01 07:03:53;;;;;;;20.77;17.35;;;13.70;99.90;;;;;;4990088;28;89949;-35
2023/09/01 07:06:19;;;;;;;17.27;14.40;;;13.90;99.90;;;;;;4995427;28;90223;-32
2023/09/01 07:08:45;;;;;;;21.58;16.58;;;14.10;99.90;;;;;;4995231;28;90001;-33
2023/09/01 07:11:12;;;;;;;19.42;16.50;;;14.30;99.90;;;;;;4996472;28;89831;-36
2023/09/01 07:13:38;;;;;;;21.33;18.38;;;14.50;99.90;;;;;;4996356;28;90132;-34
2023/09/01 07:16:05;;;;;;;24.85;19.58;;;14.60;99.90;;;;;;4994614;28;90018;-33
2023/09/01 07:18:31;;;;;;;22.90;19.58;;;14.70;99.90;;;;;;4994856;28;89735;-36
2023/09/01 07:20:58;;;;;;;21.13;17.67;;;14.80;99.90;;;;;;4995940;28;90273;-36
2023/09/01 07:23:24;;;;;;;23.05;17.73;;;15.00;99.90;;;;;;4995084;28;89046;-33
2023/09/01 07:25:49;;;;;;;22.80;17.50;;;15.10;99.90;;;;;;4995781;28;90732;-34
2023/09/01 07:28:15;;;;;;;20.70;17.48;;;15.20;99.90;;;;;;4993896;28;89563;-35
2023/09/01 07:30:41;;;;;;;19.75;17.52;;;15.40;99.90;;;;;;4994369;28;89679;-37
2023/09/01 07:33:07;;;;;;;16.65;14.75;;;15.50;99.90;;;;;;4996589;28;88219;-33
2023/09/01 07:35:32;;;;;;;22.33;16.20;;;15.50;99.90;;;;;;4995529;28;90055;-33
2023/09/01 07:37:58;;;;;;;20.85;15.45;;;15.50;99.90;;;;;;4995063;28;89201;-35
2023/09/01 07:40:24;;;;;;;20.80;16.45;;;15.60;99.90;;;;;;4995371;28;90079;-34
2023/09/01 07:42:50;;;;;;;18.77;16.75;;;15.70;99.90;;;;;;4994681;28;90241;-37
2023/09/01 07:45:16;;;;;;;21.73;16.15;;;15.70;99.90;;;;;;4994350;28;90087;-34
2023/09/01 07:47:42;;;;;;;21.80;16.75;;;15.80;99.90;;;;;;4995080;28;90047;-34
2023/09/01 07:50:09;;;;;;;20.17;15.80;;;15.80;99.90;;;;;;4993194;28;90071;-37
2023/09/01 07:52:36;;;;;;;20.35;16.77;;;15.90;99.90;;;;;;4984161;28;89175;-35
2023/09/01 07:55:05;;;;;;;17.67;15.63;;;16.00;99.90;;;;;;4994382;28;90471;-35
2023/09/01 07:57:30;;;;;;;17.00;14.45;;;16.10;99.90;;;;;;4995064;28;90115;-35
2023/09/01 07:59:56;;;;;;;28.17;16.15;;;16.00;99.90;;;;;;4994724;28;89410;-36
2023/09/01 08:02:22;;;;;;;15.73;14.10;;;16.00;99.90;;;;;;4991039;28;89040;-34
2023/09/01 08:04:47;;;;;;;15.18;13.68;;;16.00;99.90;;;;;;4998077;28;90282;-34
2023/09/01 08:07:13;;;;;;;18.13;14.90;;;16.10;99.90;;;;;;4996095;28;92511;-35
2023/09/01 08:09:38;;;;;;;14.88;13.32;;;16.10;99.90;;;;;;4998006;28;90841;-33
2023/09/01 08:12:04;;;;;;;15.48;13.82;;;16.10;99.90;;;;;;4998310;28;87929;-33
2023/09/01 08:14:30;;;;;;;24.13;12.80;;;16.20;99.90;;;;;;4997625;28;91298;-33
2023/09/01 08:16:56;;;;;;;15.93;13.88;;;16.20;99.90;;;;;;4996991;28;89593;-34
2023/09/01 08:19:21;;;;;;;15.32;12.45;;;16.30;99.90;;;;;;4997327;28;90149;-33
2023/09/01 08:21:47;;;;;;;17.95;12.48;;;16.30;99.90;;;;;;4997384;28;88115;-38
2023/09/01 08:24:13;;;;;;;20.42;13.48;;;16.40;99.90;;;;;;4997770;28;90429;-34
2023/09/01 08:26:38;;;;;;;15.40;13.85;;;16.50;99.90;;;;;;4997397;28;90202;-37
2023/09/01 08:29:04;;;;;;;15.10;10.55;;;16.50;99.90;;;;;;5048931;22;89642;-31
2023/09/01 08:31:32;;;;;;;15.55;11.45;;;16.50;99.90;;;;;;4996162;28;90358;-36
2023/09/01 08:33:57;;;;;;;12.20;10.32;;;16.40;99.90;;;;;;4978494;28;89979;-34
2023/09/01 08:36:23;;;;;;;11.65;9.40;;;16.40;99.90;;;;;;4997004;28;89709;-33
2023/09/01 08:38:49;;;;;;;11.93;10.68;;;16.50;99.90;;;;;;4998400;28;90490;-34
2023/09/01 08:41:14;;;;;;;14.02;11.23;;;16.50;99.90;;;;;;4999175;28;89478;-34
2023/09/01 08:43:42;;;;;;;14.10;11.43;;;16.60;99.90;;;;;;5000550;28;90243;-34
2023/09/01 08:46:09;;;;;;;20.27;15.77;;;16.60;99.90;;;;;;5000109;28;89831;-36
2023/09/01 08:48:35;;;;;;;22.47;16.07;;;16.60;99.90;;;;;;5001853;28;88876;-35
2023/09/01 08:51:03;;;;;;;17.67;14.82;;;16.70;99.90;;;;;;4992325;28;90338;-33
2023/09/01 08:53:29;;;;;;;18.50;14.50;;;16.70;99.90;;;;;;4996302;28;90181;-35
2023/09/01 08:55:55;;;;;;;14.77;13.18;;;16.80;99.90;;;;;;5000354;28;89835;-34
2023/09/01 08:58:21;;;;;;;19.02;15.38;;;16.90;99.90;;;;;;5000007;28;89501;-34
2023/09/01 09:00:48;;;;;;;23.05;17.08;;;16.90;99.90;;;;;;5000544;28;88254;-32
2023/09/01 09:03:14;;;;;;;20.15;16.65;;;17.00;99.90;;;;;;5000854;28;90337;-35
2023/09/01 09:05:40;;;;;;;18.48;16.10;;;16.90;99.90;;;;;;5000563;28;89801;-32
2023/09/01 09:08:07;;;;;;;21.58;18.15;;;17.00;99.90;;;;;;4997275;28;89787;-37
2023/09/01 09:10:41;;;;;;;19.40;15.50;;;17.00;99.90;;;;;;4994713;28;89491;-37
2023/09/01 09:13:24;;;;;;;22.80;17.75;;;17.00;99.90;;;;;;4999683;28;90302;-39
2023/09/01 09:16:22;;;;;;;23.38;19.67;;;17.00;99.90;;;;;;4998969;28;89628;-33
2023/09/01 09:18:48;;;;;;;;;;;17.10;99.90;;;;;;4940224;28;88482;-33
2023/09/01 09:21:27;;;;;;;26.30;21.48;;;17.30;99.90;;;;;;4999137;28;90414;-34
2023/09/01 09:23:55;;;;;;;28.77;22.77;;;17.40;99.90;;;;;;4994116;28;90078;-36
2023/09/01 09:26:28;;;;;;;24.98;22.27;;;17.50;99.90;;;;;;4998101;28;90478;-35
2023/09/01 09:28:54;;;;;;;28.35;22.27;;;17.50;99.90;;;;;;4997870;28;92357;-32
2023/09/01 09:31:36;;;;;;;26.25;21.90;;;17.60;99.90;;;;;;4996363;28;90209;-34
2023/09/01 09:34:17;;;;;;;26.63;21.52;;;17.80;99.90;;;;;;4988264;28;91065;-32
2023/09/01 09:36:44;;;;;;;27.75;21.55;;;17.90;99.90;;;;;;4997759;28;89278;-36
2023/09/01 09:39:34;;;;;;;35.27;25.37;;;18.10;99.90;;;;;;4997715;28;88647;-35
2023/09/01 09:41:59;;;;;;;32.53;22.25;;;18.10;99.90;;;;;;4997858;28;88305;-35
2023/09/01 09:44:28;;;;;;;27.27;21.67;;;18.10;99.90;;;;;;4997183;28;90212;-36
2023/09/01 09:46:54;;;;;;;27.88;22.30;;;18.30;99.90;;;;;;4985424;28;90810;-37
2023/09/01 09:49:21;;;;;;;30.20;24.65;;;18.30;99.90;;;;;;4996900;28;90391;-34
2023/09/01 09:51:51;;;;;;;27.13;22.17;;;18.20;99.90;;;;;;4996801;28;89144;-37
2023/09/01 09:54:21;;;;;;;26.58;22.00;;;18.20;99.90;;;;;;4997228;28;90127;-35
2023/09/01 09:56:50;;;;;;;28.77;21.83;;;18.30;99.90;;;;;;4997600;28;89358;-34
2023/09/01 09:59:23;;;;;;;29.33;22.13;;;18.20;99.90;;;;;;4986847;28;88053;-36
2023/09/01 10:01:49;;;;;;;30.25;21.95;;;18.40;99.90;;;;;;4986163;28;89346;-33
2023/09/01 10:04:17;;;;;;;27.90;20.27;;;18.40;99.90;;;;;;4976355;28;90634;-37
2023/09/01 10:06:44;;;;;;;26.27;19.10;;;18.40;99.90;;;;;;4997609;28;88128;-33
2023/09/01 10:09:10;;;;;;;26.42;18.60;;;18.40;99.90;;;;;;4992613;28;89210;-34
2023/09/01 10:11:37;;;;;;;22.77;18.05;;;18.40;99.90;;;;;;4988939;28;89801;-33
2023/09/01 10:14:04;;;;;;;25.90;17.83;;;18.40;99.90;;;;;;4997092;28;90730;-34
2023/09/01 10:16:30;;;;;;;21.38;17.77;;;18.40;99.90;;;;;;4996223;28;89839;-35
2023/09/01 10:18:56;;;;;;;19.77;16.67;;;18.40;99.90;;;;;;4997308;28;89157;-33
2023/09/01 10:21:22;;;;;;;20.15;17.38;;;18.50;99.90;;;;;;4997504;28;88891;-36
2023/09/01 10:23:48;;;;;;;15.60;13.90;;;18.50;99.90;;;;;;4996880;28;90077;-35
2023/09/01 10:26:16;;;;;;;23.45;14.35;;;18.60;99.90;;;;;;4996882;28;89833;-36
2023/09/01 10:28:57;;;;;;;22.08;15.10;;;18.50;99.90;;;;;;4996147;28;89387;-36
2023/09/01 10:31:23;;;;;;;19.17;14.13;;;18.50;99.90;;;;;;4996144;28;90149;-35
2023/09/01 10:34:10;;;;;;;22.30;12.00;;;18.60;99.90;;;;;;4996428;28;90397;-35
2023/09/01 10:36:37;;;;;;;22.63;14.55;;;18.60;99.90;;;;;;4996574;28;91142;-38
2023/09/01 10:39:29;;;;;;;18.53;12.33;;;18.70;99.90;;;;;;4996708;28;89232;-36
2023/09/01 10:41:59;;;;;;;19.02;10.70;;;18.70;99.90;;;;;;4996897;28;89863;-38
2023/09/01 10:44:47;;;;;;;13.45;11.85;;;18.60;99.90;;;;;;4996100;28;89219;-36
2023/09/01 10:47:42;;;;;;;19.98;12.57;;;18.60;99.90;;;;;;4988411;28;89921;-35
2023/09/01 10:50:07;;;;;;;13.13;11.35;;;18.60;99.90;;;;;;4968810;28;90399;-35
2023/09/01 10:52:34;;;;;;;16.00;13.05;;;18.70;99.90;;;;;;4995565;28;89641;-37
2023/09/01 10:55:00;;;;;;;15.75;12.30;;;18.50;99.90;;;;;;4992151;28;90003;-37
2023/09/01 10:58:07;;;;;;;15.85;12.25;;;18.50;99.90;;;;;;4996347;28;89619;-33
2023/09/01 11:00:34;;;;;;;13.20;10.35;;;18.60;99.90;;;;;;4960335;28;89971;-35
2023/09/01 11:03:29;;;;;;;17.20;11.77;;;18.60;99.90;;;;;;4982954;28;90609;-34
2023/09/01 11:06:03;;;;;;;15.02;10.50;;;18.70;99.90;;;;;;4995462;28;88347;-37
2023/09/01 11:08:30;;;;;;;13.77;9.93;;;18.50;99.90;;;;;;4996297;28;89255;-31
2023/09/01 11:11:06;;;;;;;18.67;9.55;;;18.60;99.90;;;;;;4998056;28;89821;-32
2023/09/01 11:13:32;;;;;;;13.07;11.65;;;18.60;99.90;;;;;;4998076;28;89157;-34
2023/09/01 11:16:06;;;;;;;13.15;10.23;;;18.50;99.90;;;;;;4995325;28;90639;-34
2023/09/01 11:18:32;;;;;;;14.45;10.57;;;18.50;99.90;;;;;;4996040;28;89811;-37
2023/09/01 11:21:00;;;;;;;26.38;11.18;;;18.50;99.90;;;;;;4996707;28;89446;-35
2023/09/01 11:23:27;;;;;;;17.17;12.25;;;18.50;99.90;;;;;;4996118;28;88530;-34
2023/09/01 11:26:05;;;;;;;20.67;13.07;;;18.50;99.90;;;;;;4996669;28;90268;-34
2023/09/01 11:28:32;;;;;;;27.23;14.00;;;18.50;99.90;;;;;;4992327;28;90182;-36
2023/09/01 11:31:04;;;;;;;16.25;12.00;;;18.50;99.90;;;;;;4995474;28;90557;-32
2023/09/01 11:33:36;;;;;;;17.27;11.43;;;18.50;99.90;;;;;;4992523;28;88294;-36
2023/09/01 11:36:10;;;;;;;11.68;10.57;;;18.50;99.90;;;;;;4995785;28;89720;-37
2023/09/01 11:38:36;;;;;;;14.32;11.20;;;18.40;99.90;;;;;;4987550;28;89182;-34
2023/09/01 11:41:04;;;;;;;17.30;11.73;;;18.40;99.90;;;;;;4996053;28;91102;-35
2023/09/01 11:43:30;;;;;;;15.13;11.43;;;18.40;99.90;;;;;;4995816;28;88549;-36
2023/09/01 11:45:56;;;;;;;16.48;12.00;;;18.50;99.90;;;;;;4995004;28;90539;-34
2023/09/01 11:48:24;;;;;;;17.80;12.90;;;18.50;99.90;;;;;;4996645;28;89689;-32
2023/09/01 11:50:54;;;;;;;11.95;10.70;;;18.50;99.90;;;;;;4987901;28;88599;-35
2023/09/01 11:53:25;;;;;;;14.85;11.25;;;18.50;99.90;;;;;;4988754;28;88913;-36
2023/09/01 11:55:51;;;;;;;20.40;13.70;;;18.60;99.90;;;;;;4995668;28;89457;-34
2023/09/01 11:58:17;;;;;;;18.63;13.23;;;18.60;99.90;;;;;;4993846;28;89912;-32
2023/09/01 12:00:44;;;;;;;14.27;12.30;;;18.60;99.90;;;;;;4990720;28;89260;-32
2023/09/01 12:03:11;;;;;;;18.38;14.52;;;18.60;99.90;;;;;;4983535;28;89577;-36
2023/09/01 12:05:38;;;;;;;14.40;11.65;;;18.70;99.90;;;;;;4993870;28;89971;-34
2023/09/01 12:08:06;;;;;;;14.45;11.48;;;18.70;99.90;;;;;;4983532;28;89800;-37
2023/09/01 12:10:32;;;;;;;20.27;11.15;;;18.70;99.90;;;;;;4995810;28;88538;-33
2023/09/01 12:13:12;;;;;;;14.57;9.90;;;18.70;99.90;;;;;;4995318;28;88744;-32
2023/09/01 12:16:01;;;;;;;15.63;10.63;;;18.50;99.90;;;;;;4994964;28;91502;-33
2023/09/01 12:18:41;;;;;;;14.70;10.43;;;18.60;99.90;;;;;;4995077;28;91042;-32
2023/09/01 12:21:09;;;;;;;12.65;9.38;;;18.50;99.90;;;;;;4996122;28;90298;-32
2023/09/01 12:23:43;;;;;;;18.08;10.23;;;18.60;99.90;;;;;;4995844;28;89927;-33
2023/09/01 12:26:11;;;;;;;11.77;9.65;;;18.60;99.90;;;;;;4995783;28;90700;-38
2023/09/01 12:28:38;;;;;;;15.07;10.75;;;18.60;99.90;;;;;;4995406;28;89467;-36
2023/09/01 12:31:06;;;;;;;11.98;10.32;;;18.70;99.90;;;;;;4994588;28;89326;-34
2023/09/01 12:33:32;;;;;;;14.57;10.82;;;18.70;99.90;;;;;;4995621;28;89717;-32
2023/09/01 12:35:59;;;;;;;12.57;10.63;;;18.60;99.90;;;;;;4995229;28;90804;-34
2023/09/01 12:38:25;;;;;;;12.77;9.75;;;18.70;99.90;;;;;;4995235;28;89413;-33
2023/09/01 12:40:51;;;;;;;13.85;9.25;;;18.60;99.90;;;;;;4986482;28;89198;-32